createdAt,value
2018-06-17T00:00:41.617Z,66.51
2018-06-17T00:01:41.628Z,66.13
2018-06-17T00:02:41.665Z,65.66
2018-06-17T00:03:41.644Z,66
2018-06-17T00:04:41.641Z,67.66
2018-06-17T00:05:41.662Z,67.85
2018-06-17T00:06:41.647Z,67.57
2018-06-17T00:07:41.723Z,68.31
2018-06-17T00:08:41.678Z,66.64
2018-06-17T00:09:41.625Z,67.26
2018-06-17T00:10:41.605Z,67.54
2018-06-17T00:11:41.624Z,68.06
2018-06-17T00:12:41.614Z,67.24
2018-06-17T00:13:41.606Z,68.62
2018-06-17T00:14:41.624Z,68.47
2018-06-17T00:15:41.615Z,68.91
2018-06-17T00:16:41.619Z,68.64
2018-06-17T00:17:41.626Z,68.33
2018-06-17T00:18:41.616Z,68.93
2018-06-17T00:19:41.625Z,68.61
2018-06-17T00:20:41.607Z,68.87
2018-06-17T00:21:41.622Z,69.26
2018-06-17T00:22:41.641Z,69.22
2018-06-17T00:23:41.627Z,69.83
2018-06-17T00:24:41.790Z,70.18
2018-06-17T00:25:41.654Z,70.37
2018-06-17T00:26:41.623Z,70.36
2018-06-17T00:27:41.676Z,69.82
2018-06-17T00:28:41.626Z,69.72
2018-06-17T00:29:41.622Z,69.11
2018-06-17T00:30:41.630Z,69.09
2018-06-17T00:31:41.659Z,69.09
2018-06-17T00:32:41.632Z,69.41
2018-06-17T00:33:41.639Z,69.71
2018-06-17T00:34:41.637Z,69.2
2018-06-17T00:35:41.686Z,68.37
2018-06-17T00:36:41.641Z,68.96
2018-06-17T00:37:41.667Z,69.17
2018-06-17T00:38:41.646Z,69.37
2018-06-17T00:39:41.979Z,69.79
2018-06-17T00:40:41.654Z,69.59
2018-06-17T00:41:41.651Z,70.11
2018-06-17T00:42:41.668Z,68.41
2018-06-17T00:43:41.649Z,69.68
2018-06-17T00:44:41.670Z,68.94
2018-06-17T00:45:41.652Z,69.72
2018-06-17T00:46:41.635Z,69.9
2018-06-17T00:47:41.669Z,69.54
2018-06-17T00:48:41.663Z,69.36
2018-06-17T00:49:41.647Z,67.9
2018-06-17T00:50:41.863Z,69.11
2018-06-17T00:51:41.675Z,69.91
2018-06-17T00:52:41.678Z,69.19
2018-06-17T00:53:42.184Z,68.65
2018-06-17T00:54:41.672Z,68.26
2018-06-17T00:55:41.683Z,67.51
2018-06-17T00:56:41.759Z,68
2018-06-17T00:57:41.690Z,68.26
2018-06-17T00:58:41.707Z,68.77
2018-06-17T00:59:41.722Z,68.81
2018-06-17T01:00:41.903Z,68.87
2018-06-17T01:01:41.708Z,69.36
2018-06-17T01:02:42.211Z,68.76
2018-06-17T01:03:42.172Z,69.77
2018-06-17T01:04:42.413Z,69.33
2018-06-17T01:05:42.624Z,69.17
2018-06-17T01:06:42.436Z,68.04
2018-06-17T01:07:42.416Z,68.91
2018-06-17T01:08:42.446Z,69.24
2018-06-17T01:09:42.430Z,68.46
2018-06-17T01:10:42.452Z,69.09
2018-06-17T01:11:42.421Z,69.31
2018-06-17T01:12:42.449Z,68.04
2018-06-17T01:13:42.672Z,69.36
2018-06-17T01:14:42.423Z,69.8
2018-06-17T01:15:42.417Z,70
2018-06-17T01:16:42.444Z,68.76
2018-06-17T01:17:42.403Z,70.13
2018-06-17T01:18:42.401Z,70.03
2018-06-17T01:19:42.484Z,68.85
2018-06-17T01:20:42.420Z,68.98
2018-06-17T01:21:42.357Z,68.29
2018-06-17T01:22:42.468Z,69.42
2018-06-17T01:23:42.473Z,68.7
2018-06-17T01:24:42.479Z,69.22
2018-06-17T01:25:42.414Z,68.28
2018-06-17T01:26:42.459Z,68.89
2018-06-17T01:27:42.480Z,67.76
2018-06-17T01:28:42.486Z,68.64
2018-06-17T01:29:42.475Z,69.02
2018-06-17T01:30:42.417Z,69.28
2018-06-17T01:31:42.494Z,69.95
2018-06-17T01:32:42.462Z,70.28
2018-06-17T01:33:42.413Z,69.84
2018-06-17T01:34:42.588Z,68.83
2018-06-17T01:35:42.484Z,68.6
2018-06-17T01:36:42.588Z,68.67
2018-06-17T01:37:42.482Z,68.34
2018-06-17T01:38:42.489Z,69.83
2018-06-17T01:39:42.440Z,69.29
2018-06-17T01:40:42.542Z,69.63
2018-06-17T01:41:42.574Z,70.67
2018-06-17T01:42:43.190Z,70.46
2018-06-17T01:43:42.480Z,70.88
2018-06-17T01:44:42.530Z,70.96
2018-06-17T01:45:42.528Z,70.27
2018-06-17T01:46:42.501Z,71.02
2018-06-17T01:47:42.706Z,70.78
2018-06-17T01:48:42.560Z,71.28
2018-06-17T01:49:42.472Z,70.82
2018-06-17T01:50:42.597Z,70.87
2018-06-17T01:51:42.473Z,70.81
2018-06-17T01:52:42.431Z,71.95
2018-06-17T01:53:42.501Z,72.38
2018-06-17T01:54:42.446Z,72.29
2018-06-17T01:55:42.499Z,72.05
2018-06-17T01:56:42.624Z,71.83
2018-06-17T01:57:42.454Z,72.33
2018-06-17T01:58:42.509Z,71.94
2018-06-17T01:59:42.446Z,72.12
2018-06-17T02:00:42.576Z,71.83
2018-06-17T02:01:42.565Z,71.95
2018-06-17T02:02:42.502Z,71.88
2018-06-17T02:03:42.738Z,72.18
2018-06-17T02:04:41.746Z,72.44
2018-06-17T02:05:41.751Z,71.84
2018-06-17T02:06:41.773Z,72.28
2018-06-17T02:07:41.843Z,71.72
2018-06-17T02:08:41.778Z,72.25
2018-06-17T02:09:41.880Z,71.77
2018-06-17T02:10:41.762Z,72.27
2018-06-17T02:11:41.750Z,72.58
2018-06-17T02:12:41.751Z,72.77
2018-06-17T02:13:41.774Z,71.97
2018-06-17T02:14:41.738Z,72.2
2018-06-17T02:15:41.759Z,71.49
2018-06-17T02:16:41.905Z,72
2018-06-17T02:17:41.888Z,72.39
2018-06-17T02:18:41.751Z,72.64
2018-06-17T02:19:41.900Z,72.36
2018-06-17T02:20:41.836Z,72.54
2018-06-17T02:21:41.767Z,72.45
2018-06-17T02:22:41.793Z,73.05
2018-06-17T02:23:41.880Z,72.65
2018-06-17T02:24:41.778Z,72.88
2018-06-17T02:25:41.955Z,72.88
2018-06-17T02:26:41.755Z,73.03
2018-06-17T02:27:41.761Z,72.55
2018-06-17T02:28:41.755Z,72.37
2018-06-17T02:29:41.841Z,72.83
2018-06-17T02:30:41.820Z,72.78
2018-06-17T02:31:41.788Z,72.24
2018-06-17T02:32:41.786Z,73.43
2018-06-17T02:33:41.768Z,73.19
2018-06-17T02:34:41.768Z,73.5
2018-06-17T02:35:41.774Z,73.18
2018-06-17T02:36:41.775Z,72.67
2018-06-17T02:37:41.787Z,73.49
2018-06-17T02:38:41.820Z,73.28
2018-06-17T02:39:41.877Z,73.02
2018-06-17T02:40:41.802Z,73.29
2018-06-17T02:41:41.797Z,72.76
2018-06-17T02:42:41.791Z,72.38
2018-06-17T02:43:41.807Z,72.68
2018-06-17T02:44:41.965Z,72.37
2018-06-17T02:45:41.903Z,72.3
2018-06-17T02:46:41.928Z,72.3
2018-06-17T02:47:41.890Z,71.72
2018-06-17T02:48:41.881Z,71.42
2018-06-17T02:49:41.800Z,71.67
2018-06-17T02:50:41.781Z,72.1
2018-06-17T02:51:41.873Z,72.81
2018-06-17T02:52:41.912Z,72.97
2018-06-17T02:53:41.930Z,72.99
2018-06-17T02:54:41.857Z,73.25
2018-06-17T02:55:41.920Z,73.23
2018-06-17T02:56:41.811Z,73.33
2018-06-17T02:57:41.814Z,74.31
2018-06-17T02:58:41.850Z,73.11
2018-06-17T02:59:41.869Z,73.7
2018-06-17T03:00:41.845Z,75.31
2018-06-17T03:01:41.904Z,75.89
2018-06-17T03:02:41.862Z,76.08
2018-06-17T03:03:41.890Z,76.59
2018-06-17T03:04:41.914Z,76.2
2018-06-17T03:05:41.818Z,76.88
2018-06-17T03:06:41.889Z,77.15
2018-06-17T03:07:41.896Z,76.82
2018-06-17T03:08:41.875Z,76.33
2018-06-17T03:09:41.816Z,77.25
2018-06-17T03:10:41.840Z,77.61
2018-06-17T03:11:41.896Z,77.78
2018-06-17T03:12:41.857Z,77.67
2018-06-17T03:13:41.897Z,77.67
2018-06-17T03:14:41.927Z,77.85
2018-06-17T03:15:42.002Z,77.26
2018-06-17T03:16:41.985Z,76.93
2018-06-17T03:17:42.000Z,77.39
2018-06-17T03:18:41.931Z,77.5
2018-06-17T03:19:41.836Z,77.33
2018-06-17T03:20:41.838Z,78.03
2018-06-17T03:21:41.899Z,78.03
2018-06-17T03:22:41.845Z,77.54
2018-06-17T03:23:41.862Z,77.46
2018-06-17T03:24:41.879Z,77.74
2018-06-17T03:25:41.864Z,78.26
2018-06-17T03:26:41.943Z,77.6
2018-06-17T03:27:41.913Z,77.65
2018-06-17T03:28:41.849Z,78.5
2018-06-17T03:29:41.971Z,78.41
2018-06-17T03:30:42.042Z,78.38
2018-06-17T03:31:41.850Z,79.05
2018-06-17T03:32:41.875Z,80.03
2018-06-17T03:33:41.919Z,79.04
2018-06-17T03:34:41.853Z,79.79
2018-06-17T03:35:41.894Z,80.11
2018-06-17T03:36:41.855Z,78.61
2018-06-17T03:37:41.840Z,79.33
2018-06-17T03:38:41.852Z,78.05
2018-06-17T03:39:41.851Z,79.29
2018-06-17T03:40:41.860Z,79.06
2018-06-17T03:41:41.864Z,79.04
2018-06-17T03:42:41.864Z,79.56
2018-06-17T03:43:41.851Z,79.47
2018-06-17T03:44:41.856Z,79.45
2018-06-17T03:45:41.866Z,79.92
2018-06-17T03:46:41.915Z,79.66
2018-06-17T03:47:41.865Z,80.74
2018-06-17T03:48:41.849Z,80.38
2018-06-17T03:49:41.864Z,80.7
2018-06-17T03:50:41.859Z,80.98
2018-06-17T03:51:41.866Z,81.02
2018-06-17T03:52:41.869Z,81.55
2018-06-17T03:53:41.883Z,80.81
2018-06-17T03:54:41.856Z,80.28
2018-06-17T03:55:42.033Z,79.74
2018-06-17T03:56:41.891Z,79.71
2018-06-17T03:57:41.876Z,79.08
2018-06-17T03:58:41.921Z,79.19
2018-06-17T03:59:42.050Z,79.33
2018-06-17T04:00:41.919Z,79.07
2018-06-17T04:01:41.901Z,79.09
2018-06-17T04:02:42.102Z,78.21
2018-06-17T04:03:41.886Z,78.41
2018-06-17T04:04:42.052Z,78.85
2018-06-17T04:05:42.000Z,78.35
2018-06-17T04:06:41.945Z,78.37
2018-06-17T04:07:41.951Z,78.24
2018-06-17T04:08:41.883Z,78.65
2018-06-17T04:09:41.908Z,78.32
2018-06-17T04:10:41.989Z,78.73
2018-06-17T04:11:42.114Z,76.78
2018-06-17T04:12:42.478Z,77
2018-06-17T04:13:41.913Z,77.26
2018-06-17T04:14:42.104Z,76.83
2018-06-17T04:15:41.980Z,77
2018-06-17T04:16:41.941Z,76.23
2018-06-17T04:17:41.891Z,76.17
2018-06-17T04:18:41.894Z,75.82
2018-06-17T04:19:41.903Z,75.28
2018-06-17T04:20:41.898Z,75.28
2018-06-17T04:21:41.915Z,74.92
2018-06-17T04:22:41.912Z,76.33
2018-06-17T04:23:41.894Z,77.65
2018-06-17T04:24:41.930Z,77.53
2018-06-17T04:25:41.982Z,77.48
2018-06-17T04:26:41.935Z,77.37
2018-06-17T04:27:41.981Z,77.19
2018-06-17T04:28:41.907Z,77.42
2018-06-17T04:29:41.904Z,77.55
2018-06-17T04:30:41.912Z,77.36
2018-06-17T04:31:41.922Z,77.53
2018-06-17T04:32:42.081Z,77.58
2018-06-17T04:33:41.948Z,77.67
2018-06-17T04:34:41.911Z,77.5
2018-06-17T04:35:41.929Z,76.79
2018-06-17T04:36:41.905Z,76.75
2018-06-17T04:37:41.940Z,76.89
2018-06-17T04:38:42.155Z,76.91
2018-06-17T04:39:41.925Z,76.47
2018-06-17T04:40:41.914Z,76.03
2018-06-17T04:41:41.912Z,76.81
2018-06-17T04:42:42.100Z,76.57
2018-06-17T04:43:41.965Z,76.4
2018-06-17T04:44:41.985Z,76.21
2018-06-17T04:45:42.021Z,75.71
2018-06-17T04:46:42.211Z,75.32
2018-06-17T04:47:41.956Z,75.42
2018-06-17T04:48:41.940Z,75.27
2018-06-17T04:49:41.927Z,75.8
2018-06-17T04:50:41.940Z,75.36
2018-06-17T04:51:41.948Z,75.79
2018-06-17T04:52:41.940Z,75.86
2018-06-17T04:53:41.936Z,75.79
2018-06-17T04:54:41.939Z,76.19
2018-06-17T04:55:41.921Z,75.92
2018-06-17T04:56:41.941Z,75.9
2018-06-17T04:57:41.950Z,75.48
2018-06-17T04:58:41.948Z,75.04
2018-06-17T04:59:41.956Z,75.02
2018-06-17T05:00:41.928Z,74.63
2018-06-17T05:01:41.942Z,74.57
2018-06-17T05:02:41.930Z,74.27
2018-06-17T05:03:41.948Z,74.61
2018-06-17T05:04:41.946Z,73.82
2018-06-17T05:05:41.980Z,73.71
2018-06-17T05:06:41.954Z,73.48
2018-06-17T05:07:41.973Z,73.54
2018-06-17T05:08:41.972Z,73.16
2018-06-17T05:09:42.024Z,72.8
2018-06-17T05:10:41.963Z,72.98
2018-06-17T05:11:42.092Z,72.85
2018-06-17T05:12:42.186Z,72.69
2018-06-17T05:13:41.960Z,72.27
2018-06-17T05:14:42.039Z,72.31
2018-06-17T05:15:42.100Z,71.86
2018-06-17T05:16:42.052Z,72.49
2018-06-17T05:17:42.065Z,72.39
2018-06-17T05:18:42.030Z,72.89
2018-06-17T05:19:42.009Z,72.53
2018-06-17T05:20:41.952Z,72.47
2018-06-17T05:21:41.978Z,72.11
2018-06-17T05:22:42.004Z,71.84
2018-06-17T05:23:42.036Z,71.62
2018-06-17T05:24:41.976Z,72.25
2018-06-17T05:25:41.993Z,72.12
2018-06-17T05:26:42.022Z,71.91
2018-06-17T05:27:42.014Z,71.72
2018-06-17T05:28:42.115Z,72.23
2018-06-17T05:29:42.066Z,71.57
2018-06-17T05:30:41.994Z,71.57
2018-06-17T05:31:41.982Z,71.38
2018-06-17T05:32:41.990Z,70.75
2018-06-17T05:33:41.995Z,72.08
2018-06-17T05:34:41.998Z,71.58
2018-06-17T05:35:42.017Z,70.41
2018-06-17T05:36:42.009Z,70.7
2018-06-17T05:37:41.997Z,69.78
2018-06-17T05:38:41.977Z,69.36
2018-06-17T05:39:42.070Z,69.65
2018-06-17T05:40:42.005Z,69.56
2018-06-17T05:41:41.984Z,69.14
2018-06-17T05:42:41.995Z,69.19
2018-06-17T05:43:42.041Z,70.01
2018-06-17T05:44:42.164Z,69.66
2018-06-17T05:45:42.000Z,68.68
2018-06-17T05:46:42.093Z,68.59
2018-06-17T05:47:42.042Z,68.86
2018-06-17T05:48:42.016Z,68.68
2018-06-17T05:49:42.023Z,68.73
2018-06-17T05:50:42.016Z,68.33
2018-06-17T05:51:42.122Z,68.83
2018-06-17T05:52:42.039Z,68.17
2018-06-17T05:53:42.003Z,67.36
2018-06-17T05:54:42.045Z,68.32
2018-06-17T05:55:42.098Z,67.35
2018-06-17T05:56:41.997Z,68
2018-06-17T05:57:42.070Z,68.11
2018-06-17T05:58:42.007Z,67.91
2018-06-17T05:59:42.006Z,68.17
2018-06-17T06:00:42.223Z,67.84
2018-06-17T06:01:42.030Z,67.46
2018-06-17T06:02:42.088Z,67.75
2018-06-17T06:03:42.078Z,67.11
2018-06-17T06:04:42.023Z,67.16
2018-06-17T06:05:42.025Z,67.3
2018-06-17T06:06:42.015Z,67.46
2018-06-17T06:07:42.102Z,67.25
2018-06-17T06:08:42.002Z,66.57
2018-06-17T06:09:42.083Z,67.13
2018-06-17T06:10:42.047Z,67.15
2018-06-17T06:11:42.024Z,66.47
2018-06-17T06:12:42.037Z,67.03
2018-06-17T06:13:42.434Z,66.97
2018-06-17T06:14:42.023Z,66.32
2018-06-17T06:15:42.032Z,65.8
2018-06-17T06:16:42.305Z,65.84
2018-06-17T06:17:42.272Z,66.07
2018-06-17T06:18:42.028Z,66.08
2018-06-17T06:19:42.073Z,66.13
2018-06-17T06:20:42.061Z,65.95
2018-06-17T06:21:42.406Z,65.46
2018-06-17T06:22:43.698Z,65.25
2018-06-17T06:23:43.419Z,65.55
2018-06-17T06:24:42.324Z,64.74
2018-06-17T06:25:42.142Z,64.93
2018-06-17T06:26:42.055Z,64.97
2018-06-17T06:27:42.053Z,65.47
2018-06-17T06:28:42.187Z,65.29
2018-06-17T06:29:42.062Z,65.13
2018-06-17T06:30:42.060Z,64.55
2018-06-17T06:31:42.071Z,64.05
2018-06-17T06:32:42.059Z,64.2
2018-06-17T06:33:42.116Z,64.3
2018-06-17T06:34:42.226Z,64.41
2018-06-17T06:35:42.084Z,64.31
2018-06-17T06:36:42.065Z,63.76
2018-06-17T06:37:42.074Z,63.34
2018-06-17T06:38:42.076Z,62.94
2018-06-17T06:39:42.050Z,63.72
2018-06-17T06:40:42.110Z,63.22
2018-06-17T06:41:42.130Z,62.97
2018-06-17T06:42:42.126Z,63.1
2018-06-17T06:43:42.080Z,62.62
2018-06-17T06:44:42.067Z,62.01
2018-06-17T06:45:42.127Z,61.98
2018-06-17T06:46:42.064Z,62.49
2018-06-17T06:47:42.083Z,63.32
2018-06-17T06:48:42.070Z,62.28
2018-06-17T06:49:42.071Z,63.17
2018-06-17T06:50:42.074Z,62.54
2018-06-17T06:51:42.081Z,62.33
2018-06-17T06:52:42.080Z,61.71
2018-06-17T06:53:42.131Z,61.47
2018-06-17T06:54:42.085Z,62.43
2018-06-17T06:55:42.107Z,61.88
2018-06-17T06:56:42.129Z,62.03
2018-06-17T06:57:42.104Z,61.94
2018-06-17T06:58:42.151Z,61.36
2018-06-17T06:59:42.101Z,61.44
2018-06-17T07:00:42.092Z,62.11
2018-06-17T07:01:42.135Z,61.45
2018-06-17T07:02:42.138Z,61.33
2018-06-17T07:03:42.147Z,61.73
2018-06-17T07:04:42.122Z,61.42
2018-06-17T07:05:42.285Z,61.28
2018-06-17T07:06:42.093Z,61.6
2018-06-17T07:07:42.166Z,61.81
2018-06-17T07:08:42.126Z,62.81
2018-06-17T07:09:42.214Z,61.37
2018-06-17T07:10:42.121Z,62.19
2018-06-17T07:11:42.106Z,61.69
2018-06-17T07:12:42.208Z,61.18
2018-06-17T07:13:42.106Z,61.4
2018-06-17T07:14:42.225Z,61.2
2018-06-17T07:15:42.723Z,61.36
2018-06-17T07:16:42.138Z,60.83
2018-06-17T07:17:42.121Z,60.26
2018-06-17T07:18:42.125Z,58.63
2018-06-17T07:19:42.133Z,58.19
2018-06-17T07:20:42.185Z,58.32
2018-06-17T07:21:42.119Z,57.91
2018-06-17T07:22:42.124Z,58.42
2018-06-17T07:23:42.136Z,58.93
2018-06-17T07:24:42.123Z,58.65
2018-06-17T07:25:42.127Z,58.59
2018-06-17T07:26:42.113Z,58.1
2018-06-17T07:27:42.118Z,58.81
2018-06-17T07:28:42.117Z,58.27
2018-06-17T07:29:42.291Z,58.19
2018-06-17T07:30:42.115Z,57.75
2018-06-17T07:31:42.248Z,58.1
2018-06-17T07:32:42.201Z,58.13
2018-06-17T07:33:42.163Z,57.96
2018-06-17T07:34:42.118Z,58.15
2018-06-17T07:35:42.190Z,57.8
2018-06-17T07:36:42.140Z,57.82
2018-06-17T07:37:42.181Z,58.7
2018-06-17T07:38:42.263Z,58.87
2018-06-17T07:39:42.345Z,58.26
2018-06-17T07:40:42.212Z,58.42
2018-06-17T07:41:42.131Z,59.19
2018-06-17T07:42:42.122Z,59.12
2018-06-17T07:43:42.213Z,58.92
2018-06-17T07:44:42.172Z,58.13
2018-06-17T07:45:42.137Z,58
2018-06-17T07:46:42.122Z,56.02
2018-06-17T07:47:42.199Z,55.34
2018-06-17T07:48:42.181Z,55.06
2018-06-17T07:49:42.190Z,54.45
2018-06-17T07:50:42.170Z,54.76
2018-06-17T07:51:42.230Z,53.84
2018-06-17T07:52:42.180Z,54.04
2018-06-17T07:53:42.178Z,53.74
2018-06-17T07:54:42.214Z,53.6
2018-06-17T07:55:42.282Z,53.83
2018-06-17T07:56:42.270Z,53.91
2018-06-17T07:57:42.268Z,54.06
2018-06-17T07:58:42.269Z,54.42
2018-06-17T07:59:42.319Z,54.45
2018-06-17T08:00:42.168Z,54.15
2018-06-17T08:01:42.225Z,51.63
2018-06-17T08:02:42.217Z,51.78
2018-06-17T08:03:42.169Z,53.12
2018-06-17T08:04:42.197Z,52.71
2018-06-17T08:05:42.362Z,53
2018-06-17T08:06:42.289Z,52.58
2018-06-17T08:07:42.459Z,52.57
2018-06-17T08:08:42.170Z,52.9
2018-06-17T08:09:42.165Z,52.42
2018-06-17T08:10:42.173Z,53.54
2018-06-17T08:11:42.181Z,50.02
2018-06-17T08:12:42.167Z,50.59
2018-06-17T08:13:42.156Z,49.37
2018-06-17T08:14:42.362Z,50.01
2018-06-17T08:15:42.283Z,50.96
2018-06-17T08:16:42.192Z,51.64
2018-06-17T08:17:42.182Z,51.59
2018-06-17T08:18:42.312Z,52.09
2018-06-17T08:19:42.174Z,51.58
2018-06-17T08:20:42.337Z,51.62
2018-06-17T08:21:42.221Z,49.03
2018-06-17T08:22:42.206Z,49.59
2018-06-17T08:23:42.191Z,49.76
2018-06-17T08:24:42.201Z,49.37
2018-06-17T08:25:42.207Z,48.51
2018-06-17T08:26:47.273Z,48.1
2018-06-17T08:27:42.203Z,46.5
2018-06-17T08:28:42.187Z,46.75
2018-06-17T08:29:42.832Z,46.49
2018-06-17T08:30:49.827Z,47.38
2018-06-17T08:31:47.463Z,48.55
2018-06-17T08:32:53.654Z,48.67
2018-06-17T08:33:43.357Z,49.26
2018-06-17T08:34:45.091Z,48.86
2018-06-17T08:35:45.846Z,50.07
2018-06-17T08:36:42.211Z,49.92
2018-06-17T08:37:42.237Z,50.26
2018-06-17T08:38:42.219Z,50.82
2018-06-17T08:39:42.190Z,50.82
2018-06-17T08:40:42.258Z,51.01
2018-06-17T08:41:42.216Z,51.3
2018-06-17T08:42:42.197Z,51.79
2018-06-17T08:43:42.212Z,51.51
2018-06-17T08:44:42.207Z,50.73
2018-06-17T08:45:42.220Z,50.94
2018-06-17T08:46:42.209Z,50.86
2018-06-17T08:47:42.213Z,50.79
2018-06-17T08:48:42.231Z,50.09
2018-06-17T08:49:42.227Z,51.21
2018-06-17T08:50:42.235Z,50.69
2018-06-17T08:51:42.203Z,51.14
2018-06-17T08:52:42.369Z,51.98
2018-06-17T08:53:42.248Z,51.5
2018-06-17T08:54:42.252Z,51.58
2018-06-17T08:55:42.384Z,52.11
2018-06-17T08:56:42.227Z,52.12
2018-06-17T08:57:42.223Z,51.84
2018-06-17T08:58:42.503Z,51.84
2018-06-17T08:59:42.411Z,51.23
2018-06-17T09:00:42.244Z,50.6
2018-06-17T09:01:42.259Z,50.66
2018-06-17T09:02:42.345Z,51.05
2018-06-17T09:03:42.262Z,50.63
2018-06-17T09:04:42.436Z,51.57
2018-06-17T09:05:42.283Z,51.73
2018-06-17T09:06:42.260Z,50.65
2018-06-17T09:07:42.468Z,51.7
2018-06-17T09:08:42.362Z,51.91
2018-06-17T09:09:42.469Z,51.36
2018-06-17T09:10:42.610Z,50.69
2018-06-17T09:11:42.383Z,50.85
2018-06-17T09:12:42.374Z,50.73
2018-06-17T09:13:42.286Z,50.91
2018-06-17T09:14:42.408Z,50.96
2018-06-17T09:15:42.618Z,51.77
2018-06-17T09:16:42.462Z,52.04
2018-06-17T09:17:42.433Z,52.25
2018-06-17T09:18:42.430Z,51.18
2018-06-17T09:19:42.332Z,51.42
2018-06-17T09:20:42.341Z,51.02
2018-06-17T09:21:42.449Z,51.37
2018-06-17T09:22:42.263Z,51.3
2018-06-17T09:23:42.566Z,51.39
2018-06-17T09:24:42.241Z,51.54
2018-06-17T09:25:42.253Z,51.81
2018-06-17T09:26:42.245Z,51.5
2018-06-17T09:27:42.256Z,51.41
2018-06-17T09:28:42.242Z,49.83
2018-06-17T09:29:42.298Z,50.17
2018-06-17T09:30:42.269Z,50.31
2018-06-17T09:31:42.346Z,51.17
2018-06-17T09:32:42.420Z,50.4
2018-06-17T09:33:42.272Z,49.96
2018-06-17T09:34:42.538Z,50.34
2018-06-17T09:35:42.441Z,50.34
2018-06-17T09:36:42.309Z,50.25
2018-06-17T09:37:42.353Z,50.62
2018-06-17T09:38:42.270Z,50.51
2018-06-17T09:39:42.472Z,51.29
2018-06-17T09:40:42.374Z,51.39
2018-06-17T09:41:42.322Z,51.88
2018-06-17T09:42:42.267Z,51.72
2018-06-17T09:43:42.271Z,52.14
2018-06-17T09:44:42.283Z,52.41
2018-06-17T09:45:42.312Z,52.5
2018-06-17T09:46:42.298Z,52.43
2018-06-17T09:47:42.302Z,52.48
2018-06-17T09:48:42.288Z,51.64
2018-06-17T09:49:42.490Z,51.46
2018-06-17T09:50:42.276Z,51.84
2018-06-17T09:51:42.342Z,52.16
2018-06-17T09:52:42.274Z,52.55
2018-06-17T09:53:42.307Z,52.48
2018-06-17T09:54:42.489Z,50.79
2018-06-17T09:55:42.480Z,52.13
2018-06-17T09:56:42.309Z,52.04
2018-06-17T09:57:42.414Z,52.53
2018-06-17T09:58:42.359Z,51.63
2018-06-17T09:59:42.368Z,50.96
2018-06-17T10:00:42.310Z,50.69
2018-06-17T10:01:42.365Z,51.46
2018-06-17T10:02:42.345Z,50.33
2018-06-17T10:03:42.418Z,50.77
2018-06-17T10:04:42.434Z,50.77
2018-06-17T10:05:42.358Z,50.1
2018-06-17T10:06:42.303Z,50.62
2018-06-17T10:07:42.323Z,50.46
2018-06-17T10:08:42.319Z,49.91
2018-06-17T10:09:42.476Z,50.05
2018-06-17T10:10:42.317Z,50.5
2018-06-17T10:11:42.328Z,50.62
2018-06-17T10:12:42.301Z,50.74
2018-06-17T10:13:42.355Z,51.25
2018-06-17T10:14:42.526Z,51.78
2018-06-17T10:15:42.318Z,51.1
2018-06-17T10:16:42.427Z,50.65
2018-06-17T10:17:42.331Z,51.53
2018-06-17T10:18:42.313Z,51.6
2018-06-17T10:19:42.439Z,52.1
2018-06-17T10:20:42.354Z,52.3
2018-06-17T10:21:42.349Z,52.38
2018-06-17T10:22:42.325Z,52.06
2018-06-17T10:23:42.329Z,52.96
2018-06-17T10:24:42.320Z,52.68
2018-06-17T10:25:42.478Z,52.51
2018-06-17T10:26:42.327Z,52.59
2018-06-17T10:27:42.384Z,51.26
2018-06-17T10:28:42.352Z,50.4
2018-06-17T10:29:42.361Z,49.4
2018-06-17T10:30:42.319Z,49.09
2018-06-17T10:31:42.345Z,49.31
2018-06-17T10:32:42.343Z,48.97
2018-06-17T10:33:42.493Z,49.62
2018-06-17T10:34:42.541Z,49.67
2018-06-17T10:35:42.358Z,49.73
2018-06-17T10:36:42.359Z,49.75
2018-06-17T10:37:42.366Z,49.28
2018-06-17T10:38:42.392Z,49.59
2018-06-17T10:39:42.365Z,49.05
2018-06-17T10:40:42.325Z,49.83
2018-06-17T10:41:42.379Z,49.95
2018-06-17T10:42:42.379Z,49.99
2018-06-17T10:43:42.381Z,50.08
2018-06-17T10:44:42.349Z,48.35
2018-06-17T10:45:42.396Z,47.8
2018-06-17T10:46:42.350Z,49.08
2018-06-17T10:47:42.405Z,48.76
2018-06-17T10:48:42.391Z,48.43
2018-06-17T10:49:42.438Z,48.54
2018-06-17T10:50:42.355Z,48.73
2018-06-17T10:51:42.361Z,48.99
2018-06-17T10:52:42.354Z,49.25
2018-06-17T10:53:42.380Z,49.46
2018-06-17T10:54:42.383Z,49.38
2018-06-17T10:55:42.530Z,49.17
2018-06-17T10:56:42.358Z,48.53
2018-06-17T10:57:42.392Z,49.04
2018-06-17T10:58:42.383Z,49.6
2018-06-17T10:59:42.504Z,48.91
2018-06-17T11:00:42.350Z,48.66
2018-06-17T11:01:42.362Z,48.85
2018-06-17T11:02:42.391Z,49.21
2018-06-17T11:03:42.383Z,48.93
2018-06-17T11:04:42.386Z,48.33
2018-06-17T11:05:42.481Z,48.55
2018-06-17T11:06:42.381Z,48.86
2018-06-17T11:07:42.561Z,48.82
2018-06-17T11:08:42.388Z,48.42
2018-06-17T11:09:43.502Z,49.41
2018-06-17T11:10:42.583Z,49.98
2018-06-17T11:11:42.398Z,49.77
2018-06-17T11:12:42.451Z,49.11
2018-06-17T11:13:42.444Z,49.22
2018-06-17T11:14:42.507Z,50.35
2018-06-17T11:15:42.433Z,49.41
2018-06-17T11:16:42.377Z,49.43
2018-06-17T11:17:42.413Z,48.82
2018-06-17T11:18:42.375Z,48.61
2018-06-17T11:19:42.470Z,47.67
2018-06-17T11:20:42.395Z,48.68
2018-06-17T11:21:42.481Z,48.93
2018-06-17T11:22:42.410Z,49.25
2018-06-17T11:23:42.451Z,49.62
2018-06-17T11:24:42.576Z,48.85
2018-06-17T11:25:42.686Z,48.29
2018-06-17T11:26:42.600Z,48.07
2018-06-17T11:27:42.547Z,48.51
2018-06-17T11:28:42.518Z,48.7
2018-06-17T11:29:42.564Z,48.62
2018-06-17T11:30:42.520Z,48.45
2018-06-17T11:31:42.675Z,48.63
2018-06-17T11:32:42.690Z,47.56
2018-06-17T11:33:42.583Z,47.62
2018-06-17T11:34:42.563Z,47.3
2018-06-17T11:35:42.654Z,47.98
2018-06-17T11:36:42.618Z,48.16
2018-06-17T11:37:42.557Z,48.12
2018-06-17T11:38:42.573Z,48.26
2018-06-17T11:39:42.534Z,48.76
2018-06-17T11:40:42.629Z,48.02
2018-06-17T11:41:42.539Z,48.06
2018-06-17T11:42:42.430Z,47.97
2018-06-17T11:43:42.415Z,48.49
2018-06-17T11:44:42.907Z,48.39
2018-06-17T11:45:42.562Z,48.03
2018-06-17T11:46:42.567Z,48.02
2018-06-17T11:47:42.443Z,47.88
2018-06-17T11:48:42.495Z,48.44
2018-06-17T11:49:42.616Z,48.66
2018-06-17T11:50:42.466Z,48.83
2018-06-17T11:51:42.516Z,48.82
2018-06-17T11:52:42.443Z,49.03
2018-06-17T11:53:42.452Z,49.38
2018-06-17T11:54:42.612Z,49.62
2018-06-17T11:55:42.844Z,48.59
2018-06-17T11:56:42.649Z,48.78
2018-06-17T11:57:42.452Z,48.98
2018-06-17T11:58:42.598Z,48.74
2018-06-17T11:59:42.638Z,48.6
2018-06-17T12:00:42.600Z,48.8
2018-06-17T12:01:42.595Z,49.76
2018-06-17T12:02:42.437Z,49.23
2018-06-17T12:03:42.441Z,48.93
2018-06-17T12:04:42.441Z,48.48
2018-06-17T12:11:46.699Z,49.89
2018-06-17T12:12:46.666Z,49.84
2018-06-17T12:13:47.642Z,48.94
2018-06-17T12:14:46.633Z,49.15
2018-06-17T12:15:46.726Z,49.61
2018-06-17T12:16:46.641Z,49.9
2018-06-17T12:17:46.662Z,49.68
2018-06-17T12:18:46.790Z,49.83
2018-06-17T12:19:47.826Z,49.37
2018-06-17T12:20:46.638Z,49.22
2018-06-17T12:21:46.661Z,48.71
2018-06-17T12:22:46.801Z,48.33
2018-06-17T12:23:46.654Z,48.63
2018-06-17T12:24:46.838Z,49.38
2018-06-17T12:25:46.945Z,49.39
2018-06-17T12:26:46.793Z,49.34
2018-06-17T12:27:46.799Z,49.76
2018-06-17T12:28:46.808Z,49.07
2018-06-17T12:29:46.615Z,49.15
2018-06-17T12:30:46.618Z,49.62
2018-06-17T12:31:46.660Z,49.95
2018-06-17T12:32:46.609Z,49.26
2018-06-17T12:33:46.936Z,49.28
2018-06-17T12:34:46.648Z,49.22
2018-06-17T12:35:46.855Z,49.66
2018-06-17T12:36:46.986Z,50.06
2018-06-17T12:37:46.634Z,50.19
2018-06-17T12:38:46.723Z,50.04
2018-06-17T12:39:46.641Z,49.74
2018-06-17T12:40:46.646Z,49.91
2018-06-17T12:41:46.650Z,50.05
2018-06-17T12:42:46.657Z,49.72
2018-06-17T12:43:46.871Z,49.72
2018-06-17T12:44:46.821Z,49.81
2018-06-17T12:45:46.632Z,49.95
2018-06-17T12:46:46.674Z,50.12
2018-06-17T12:47:46.713Z,50.25
2018-06-17T12:48:46.897Z,50.17
2018-06-17T12:49:46.929Z,50.39
2018-06-17T12:50:46.631Z,50.94
2018-06-17T12:51:46.613Z,50.74
2018-06-17T12:52:32.630Z,50.64
2018-06-17T12:53:32.827Z,50.7
2018-06-17T12:54:32.749Z,51.39
2018-06-17T12:55:32.611Z,51.03
2018-06-17T12:56:32.769Z,51.25
2018-06-17T12:57:32.591Z,50.87
2018-06-17T12:58:32.602Z,50.32
2018-06-17T12:59:32.654Z,50.49
2018-06-17T13:00:32.590Z,50.72
2018-06-17T13:01:32.588Z,50.72